ADDS METAR Data INFO
IDs: Format: Raw Decoded Include TAF

Data at: 0301 UTC 21 Jan 2018

KY19 210235Z AUTO 30008KT 10SM CLR M02/M04 A2992 RMK AO2
KY19 210215Z AUTO 29008KT 10SM CLR M02/M04 A2992 RMK AO2
KY19 210155Z AUTO 30010KT 10SM CLR M01/M04 A2991 RMK AO2
KY19 210135Z AUTO 29009KT 10SM CLR M01/M04 A2991 RMK AO2
KY19 210115Z AUTO 30007KT 10SM CLR M00/M04 A2991 RMK AO2
KY19 210055Z AUTO 30010KT 10SM CLR M00/M04 A2990 RMK AO2
KY19 210035Z AUTO 30009KT 10SM CLR M01/M04 A2990 RMK AO2
KY19 210015Z AUTO 28009KT 10SM CLR M00/M03 A2990 RMK AO2
KY19 202355Z AUTO 27005KT 10SM CLR 01/M03 A2990 RMK AO2
KY19 202335Z AUTO 30004KT 10SM CLR 01/M03 A2989 RMK AO2
KY19 202315Z AUTO 28006KT 10SM CLR 00/M02 A2989 RMK AO2
KY19 202255Z AUTO 28008KT 10SM CLR 01/M02 A2988 RMK AO2
KY19 202235Z AUTO 27006KT 10SM CLR 03/M02 A2988 RMK AO2
KY19 202215Z AUTO 27008KT 10SM CLR 03/M02 A2987 RMK AO2
KY19 202155Z AUTO 32006KT 10SM CLR 03/M02 A2987 RMK AO2
KY19 202135Z AUTO 27009KT 10SM CLR 03/M02 A2987 RMK AO2
KY19 202115Z AUTO 28014KT 10SM CLR 03/M03 A2985 RMK AO2
KY19 202055Z AUTO 28011KT 10SM CLR 04/M03 A2985 RMK AO2
KY19 202035Z AUTO 28012KT 10SM CLR 04/M03 A2985 RMK AO2
KY19 202015Z AUTO 29012KT 10SM CLR 04/M03 A2985 RMK AO2
KY19 201955Z AUTO 28012KT 10SM CLR 04/M03 A2986 RMK AO2
KY19 201935Z AUTO 28010KT 10SM CLR 04/M02 A2986 RMK AO2
KY19 201915Z AUTO 29011KT 10SM CLR 04/M02 A2986 RMK AO2
KY19 201855Z AUTO 28011KT 10SM CLR 03/M02 A2986 RMK AO2
KY19 201835Z AUTO 28011KT 10SM CLR 03/M02 A2986 RMK AO2
KY19 201815Z AUTO 28010KT 10SM CLR 03/M02 A2987 RMK AO2
KY19 201755Z AUTO 27010KT 10SM CLR 03/M02 A2987 RMK AO2
KY19 201735Z AUTO 27011KT 10SM CLR 02/M02 A2988 RMK AO2
KY19 201715Z AUTO 27009KT 10SM CLR 02/M02 A2988 RMK AO2
KY19 201655Z AUTO 27011KT 10SM CLR 02/M02 A2987 RMK AO2
KY19 201635Z AUTO 27009KT 10SM CLR 02/M01 A2986 RMK AO2
KY19 201615Z AUTO 26009KT 10SM CLR 01/M02 A2986 RMK AO2
KY19 201555Z AUTO 26009KT 10SM CLR 01/M02 A2985 RMK AO2
KY19 201535Z AUTO 26009KT 10SM CLR 00/M02 A2984 RMK AO2
KY19 201515Z AUTO 26008KT 10SM CLR 00/M02 A2983 RMK AO2
KY19 201455Z AUTO 26009KT 10SM FEW120 01/M01 A2983 RMK AO2
KY19 201435Z AUTO 24009KT 10SM FEW120 00/M01 A2982 RMK AO2
KY19 201415Z AUTO 26010KT 10SM SCT095 SCT110 01/M01 A2982 RMK AO2
KY19 201355Z AUTO 28008KT 10SM OVC095 00/M01 A2982 RMK AO2
KY19 201335Z AUTO 28009KT 10SM BKN100 OVC120 01/M01 A2981 RMK AO2
KY19 201315Z AUTO 27010KT 10SM BKN100 BKN120 01/M01 A2980 RMK AO2
KY19 201255Z AUTO 27010KT 10SM BKN095 OVC120 01/M01 A2980 RMK AO2
KY19 201235Z AUTO 26006KT 10SM OVC090 01/M01 A2979 RMK AO2
KY19 201215Z AUTO 00000KT 10SM BKN075 BKN090 OVC110 01/M01 A2979 RMK AO2
KY19 201155Z AUTO 24003KT 10SM BKN075 OVC100 01/M00 A2979 RMK AO2
KY19 201135Z AUTO 24005KT 10SM BKN090 OVC110 01/M00 A2979 RMK AO2
KY19 201115Z AUTO 25007KT 10SM OVC090 01/M00 A2978 RMK AO2
KY19 201055Z AUTO 28008KT 10SM BKN100 BKN120 01/M00 A2978 RMK AO2
KY19 201035Z AUTO 29009KT 10SM SCT080 BKN110 01/M01 A2977 RMK AO2
KY19 201015Z AUTO 28010KT 10SM OVC080 01/M00 A2977 RMK AO2
KY19 200955Z AUTO 27010KT 10SM OVC085 02/M00 A2977 RMK AO2
KY19 200935Z AUTO 28010KT 10SM BKN080 OVC090 01/M00 A2977 RMK AO2
KY19 200915Z AUTO 28011KT 10SM OVC085 01/M00 A2978 RMK AO2
KY19 200855Z AUTO 28011KT 10SM BKN075 OVC090 01/M00 A2977 RMK AO2
KY19 200835Z AUTO 28010KT 10SM BKN075 OVC095 02/M00 A2976 RMK AO2
KY19 200815Z AUTO 29008KT 10SM OVC070 02/M00 A2976 RMK AO2
KY19 200755Z AUTO 26009G15KT 10SM SCT060 OVC075 02/M01 A2976 RMK AO2
KY19 200735Z AUTO 26011KT 10SM BKN060 OVC075 03/M01 A2976 RMK AO2
KY19 200715Z AUTO 26012KT 10SM OVC075 02/M01 A2975 RMK AO2
KY19 200655Z AUTO 27012KT 10SM OVC070 02/M01 A2975 RMK AO2
KY19 200635Z AUTO 27011KT 10SM OVC070 02/M01 A2975 RMK AO2
KY19 200615Z AUTO 27009KT 10SM SCT065 OVC075 02/M00 A2975 RMK AO2
KY19 200555Z AUTO 26011KT 10SM BKN070 OVC080 02/M00 A2975 RMK AO2
KY19 200535Z AUTO 27012KT 10SM BKN065 OVC080 02/00 A2975 RMK AO2
KY19 200515Z AUTO 27011KT 10SM BKN075 OVC085 02/00 A2974 RMK AO2
KY19 200455Z AUTO 26009KT 10SM BKN070 OVC090 01/00 A2972 RMK AO2
KY19 200435Z AUTO 27009KT 10SM FEW075 OVC090 01/00 A2972 RMK AO2
KY19 200415Z AUTO 27009KT 10SM FEW075 OVC095 01/00 A2972 RMK AO2
KY19 200355Z AUTO 26010KT 10SM FEW080 OVC095 01/00 A2971 RMK AO2
KY19 200335Z AUTO 26009KT 10SM FEW080 OVC100 02/00 A2970 RMK AO2
KY19 200315Z AUTO 27012KT 10SM OVC110 02/00 A2970 RMK AO2
KY19 200255Z AUTO 28014KT 10SM OVC110 02/00 A2969 RMK AO2
KY19 200235Z AUTO 27013KT 10SM BKN110 02/M00 A2969 RMK AO2
KY19 200215Z AUTO 28012KT 10SM CLR 02/M01 A2968 RMK AO2
KY19 200155Z AUTO 27013KT 10SM CLR 03/M01 A2968 RMK AO2
KY19 200135Z AUTO 27014KT 10SM SCT100 03/M01 A2966 RMK AO2
KY19 200115Z AUTO 27012KT 10SM OVC100 02/M00 A2966 RMK AO2
KY19 200055Z AUTO 26009KT 10SM BKN110 03/M00 A2967 RMK AO2
KY19 200035Z AUTO 28009KT 10SM BKN100 02/M00 A2965 RMK AO2
KY19 200015Z AUTO 27011KT 10SM SCT110 02/M00 A2966 RMK AO2
KY19 192355Z AUTO 27009KT 10SM CLR 03/M01 A2965 RMK AO2
KY19 192335Z AUTO 26007KT 10SM CLR 03/M00 A2964 RMK AO2
KY19 192315Z AUTO 29009KT 10SM CLR 03/M00 A2963 RMK AO2
KY19 192255Z AUTO 29011KT 10SM CLR 03/M00 A2963 RMK AO2
KY19 192235Z AUTO 28012KT 10SM CLR 03/M00 A2962 RMK AO2
KY19 192215Z AUTO 28010KT 10SM CLR 03/M00 A2963 RMK AO2
KY19 192155Z AUTO 30008KT 10SM CLR 04/M00 A2962 RMK AO2
KY19 192135Z AUTO 31010KT 10SM CLR 05/M00 A2962 RMK AO2
KY19 192115Z AUTO 30012KT 10SM CLR 04/M00 A2961 RMK AO2
KY19 192055Z AUTO 30012KT 10SM CLR 05/M00 A2960 RMK AO2
KY19 192035Z AUTO 30011KT 10SM CLR 05/00 A2960 RMK AO2
KY19 192015Z AUTO 28011KT 10SM FEW110 04/00 A2960 RMK AO2
KY19 191955Z AUTO 27011KT 10SM OVC100 04/00 A2961 RMK AO2
KY19 191935Z AUTO 28012KT 10SM BKN100 04/00 A2962 RMK AO2
KY19 191915Z AUTO 29014KT 10SM FEW110 04/M00 A2961 RMK AO2
KY19 191855Z AUTO 29011KT 10SM BKN110 04/00 A2959 RMK AO2
KY19 191835Z AUTO 28009KT 10SM OVC100 03/00 A2959 RMK AO2
KY19 191815Z AUTO 28012KT 10SM OVC095 03/00 A2960 RMK AO2
KY19 191755Z AUTO 28010KT 10SM OVC090 03/M00 A2960 RMK AO2
KY19 191735Z AUTO 28012KT 10SM SCT090 BKN110 03/M00 A2960 RMK AO2
KY19 191715Z AUTO 28012KT 10SM SCT110 03/M00 A2959 RMK AO2
KY19 191655Z AUTO 28012KT 10SM BKN110 03/M00 A2959 RMK AO2
KY19 191635Z AUTO 27010KT 10SM SCT120 02/M01 A2959 RMK AO2
KY19 191615Z AUTO 28008KT 10SM CLR 02/M01 A2958 RMK AO2
KY19 191555Z AUTO 28010KT 10SM CLR 01/M01 A2958 RMK AO2
KY19 191535Z AUTO 26007KT 10SM CLR 01/M02 A2957 RMK AO2
KY19 191515Z AUTO 29008KT 10SM FEW120 01/M02 A2958 RMK AO2